Time;durP1;ratioP1;P1;durP2;ratioP2;P2;SDS_P1;SDS_P2;PMS_P1;PMS_P2;Temp;Humidity;BMP_temperature;BMP_pressure;BME280_temperature;BME280_humidity;BME280_pressure;Samples;Min_cycle;Max_cycle;Signal;HPM_P1;HPM_P2
2023/10/02 00:01:51;;;;;;;6.15;2.97;;;;;;;22.04;50.74;94221.28;6082385;23;20052;-92
2023/10/02 00:04:23;;;;;;;4.75;3.38;;;;;;;22.02;50.75;94213.53;6078279;23;20026;-94
2023/10/02 00:06:59;;;;;;;4.20;2.75;;;;;;;22.01;50.92;94219.53;6103491;23;20037;-92
2023/10/02 00:09:37;;;;;;;4.03;2.97;;;;;;;22.00;50.87;94226.28;6084917;23;20487;-91
2023/10/02 00:12:11;;;;;;;4.25;2.92;;;;;;;22.01;51.12;94225.06;6079891;23;20036;-92
2023/10/02 00:14:38;;;;;;;3.90;2.95;;;;;;;22.02;50.59;94224.53;6106271;23;20025;-92
2023/10/02 00:17:03;;;;;;;4.78;3.03;;;;;;;21.99;51.22;94220.03;6102072;23;20021;-92
2023/10/02 00:19:30;;;;;;;5.05;3.22;;;;;;;21.99;50.86;94219.28;6077735;23;20016;-92
2023/10/02 00:22:08;;;;;;;5.30;3.15;;;;;;;22.00;51.06;94213.28;6101426;23;20071;-92
2023/10/02 00:24:37;;;;;;;3.67;2.80;;;;;;;22.04;51.08;94210.25;6082725;23;20037;-93
2023/10/02 00:27:04;;;;;;;5.60;3.67;;;;;;;22.02;50.86;94204.53;6079934;23;20017;-92
2023/10/02 00:29:29;;;;;;;4.25;2.92;;;;;;;22.00;50.90;94196.00;6079430;23;20076;-92
2023/10/02 00:31:56;;;;;;;4.00;3.05;;;;;;;22.00;50.97;94213.28;6080089;23;20013;-92
2023/10/02 00:34:30;;;;;;;3.58;2.88;;;;;;;21.97;50.98;94199.78;6080606;23;20033;-92
2023/10/02 00:37:01;;;;;;;4.75;3.13;;;;;;;21.97;50.96;94206.03;6083967;23;20106;-94
2023/10/02 00:39:31;;;;;;;3.95;3.10;;;;;;;21.99;50.79;94205.50;6080595;23;20018;-93
2023/10/02 00:42:15;;;;;;;5.70;3.08;;;;;;;21.98;50.86;94204.03;6081744;23;20013;-90
2023/10/02 00:44:54;;;;;;;3.88;2.97;;;;;;;21.96;50.95;94201.78;6110174;23;20070;-92
2023/10/02 00:47:41;;;;;;;4.47;3.20;;;;;;;21.98;50.97;94206.78;6078841;23;20520;-93
2023/10/02 00:50:17;;;;;;;4.43;2.80;;;;;;;21.97;50.92;94213.53;6101293;23;20022;-91
2023/10/02 00:52:43;;;;;;;3.85;2.63;;;;;;;21.96;50.94;94212.03;6076374;23;20053;-90
2023/10/02 00:55:12;;;;;;;4.75;2.95;;;;;;;21.97;50.69;94206.03;6098968;23;20057;-92
2023/10/02 00:57:39;;;;;;;4.65;2.95;;;;;;;21.97;50.99;94202.53;6074528;23;20022;-93
2023/10/02 01:00:17;;;;;;;3.80;2.88;;;;;;;21.97;50.87;94197.78;6073053;23;20032;-91
2023/10/02 01:02:45;;;;;;;4.60;3.10;;;;;;;21.97;50.74;94200.53;6067926;23;20066;-92
2023/10/02 01:05:16;;;;;;;5.40;2.90;;;;;;;21.96;50.73;94207.28;6068129;23;20113;-92
2023/10/02 01:07:44;;;;;;;5.07;3.15;;;;;;;21.95;50.82;94203.03;6045012;23;20020;-92
2023/10/02 01:10:18;;;;;;;3.65;2.58;;;;;;;21.95;50.81;94192.03;6067447;23;20023;-91
2023/10/02 01:12:49;;;;;;;4.38;3.03;;;;;;;21.97;50.88;94195.03;6068590;23;20138;-91
2023/10/02 01:15:16;;;;;;;4.18;2.58;;;;;;;21.97;50.79;94206.03;6042716;23;20070;-93
2023/10/02 01:17:49;;;;;;;4.50;3.00;;;;;;;21.95;50.90;94196.78;6043889;23;20134;-93
2023/10/02 01:20:20;;;;;;;4.55;2.85;;;;;;;21.96;50.94;94199.03;6066467;23;20026;-90
2023/10/02 01:22:51;;;;;;;5.07;3.15;;;;;;;21.95;51.11;94197.53;6044828;23;20018;-92
2023/10/02 01:25:17;;;;;;;5.03;3.15;;;;;;;21.96;50.71;94192.78;6043532;23;20025;-91
2023/10/02 01:27:47;;;;;;;4.30;3.25;;;;;;;21.95;50.64;94180.28;6044070;23;20014;-92
2023/10/02 01:30:20;;;;;;;5.38;3.35;;;;;;;21.97;50.62;94189.50;6043295;23;20045;-91
2023/10/02 01:35:49;;;;;;;4.03;2.90;;;;;;;21.99;50.51;94181.47;6069580;23;20022;-94
2023/10/02 01:38:30;;;;;;;3.67;2.92;;;;;;;21.96;50.58;94179.00;6065422;23;20921;-92
2023/10/02 01:41:05;;;;;;;5.30;2.95;;;;;;;21.97;50.73;94183.25;6093469;23;20421;-93
2023/10/02 01:43:36;;;;;;;4.75;3.20;;;;;;;21.97;50.62;94169.50;6075182;23;20025;-92
2023/10/02 01:46:01;;;;;;;4.45;2.65;;;;;;;21.96;50.57;94181.75;6099856;23;20041;-91
2023/10/02 01:48:36;;;;;;;4.03;2.60;;;;;;;21.95;50.77;94183.78;6073787;23;20026;-94
2023/10/02 01:51:20;;;;;;;3.78;2.80;;;;;;;21.95;50.61;94183.78;6077979;23;20017;-93
2023/10/02 01:53:51;;;;;;;4.47;2.75;;;;;;;21.94;50.81;94178.78;6078611;23;20018;-92
2023/10/02 01:56:17;;;;;;;5.28;2.97;;;;;;;21.94;50.53;94182.28;6073850;23;20044;-91
2023/10/02 01:58:44;;;;;;;4.50;3.03;;;;;;;21.94;50.60;94176.03;6072939;23;20014;-93
2023/10/02 02:01:10;;;;;;;5.15;3.35;;;;;;;21.93;50.45;94189.03;6073215;23;20025;-93
2023/10/02 02:03:41;;;;;;;5.05;3.13;;;;;;;21.92;50.82;94175.78;6074485;23;20018;-93
2023/10/02 02:06:09;;;;;;;5.28;2.72;;;;;;;21.91;50.67;94177.78;6073401;23;20101;-93
2023/10/02 02:08:43;;;;;;;3.70;3.08;;;;;;;21.90;50.58;94179.81;6074811;23;20014;-92
2023/10/02 02:11:15;;;;;;;4.55;3.00;;;;;;;21.92;51.03;94186.81;6075633;23;20018;-91
2023/10/02 02:13:47;;;;;;;3.95;2.53;;;;;;;21.94;50.63;94176.03;6076297;23;20017;-93
2023/10/02 02:16:22;;;;;;;4.97;2.92;;;;;;;21.94;50.83;94187.78;6075932;23;20025;-91
2023/10/02 02:18:56;;;;;;;4.20;2.65;;;;;;;21.95;50.38;94174.75;6076221;23;20327;-92
2023/10/02 02:21:24;;;;;;;4.13;2.80;;;;;;;21.94;50.50;94173.28;6075525;23;20449;-93
2023/10/02 02:24:08;;;;;;;4.55;2.72;;;;;;;21.92;50.57;94176.53;6075755;23;20056;-93
2023/10/02 02:26:37;;;;;;;4.03;2.90;;;;;;;21.94;50.47;94171.25;6079245;23;20048;-91
2023/10/02 02:29:03;;;;;;;4.30;2.55;;;;;;;21.94;50.20;94171.25;6073489;23;20033;-92
2023/10/02 02:31:29;;;;;;;3.50;2.72;;;;;;;21.91;50.74;94169.53;6075111;23;20018;-90
2023/10/02 02:34:04;;;;;;;3.90;2.60;;;;;;;21.91;50.80;94175.03;6074820;23;20009;-93
2023/10/02 02:36:35;;;;;;;3.85;2.75;;;;;;;21.93;50.52;94169.03;6074263;23;20022;-92
2023/10/02 02:44:46;;;;;;;4.20;2.80;;;;;;;21.91;50.55;94175.03;5994831;23;20477;-93
2023/10/02 02:47:15;;;;;;;4.10;2.90;;;;;;;21.91;50.63;94172.28;5987142;23;20434;-93
2023/10/02 02:50:00;;;;;;;4.85;2.70;;;;;;;21.91;50.55;94166.78;5962878;23;20019;-92
2023/10/02 02:52:26;;;;;;;5.60;2.83;;;;;;;21.90;50.68;94170.81;5992881;23;20026;-92
2023/10/02 02:54:59;;;;;;;4.18;2.60;;;;;;;21.89;50.54;94172.06;5981725;23;20094;-94
2023/10/02 02:57:25;;;;;;;4.75;3.08;;;;;;;21.92;50.83;94162.03;5981427;23;20027;-93
2023/10/02 03:00:24;;;;;;;4.60;2.95;;;;;;;21.88;50.72;94171.31;5982409;23;20027;-92
2023/10/02 03:02:39;;;;;;;3.47;2.50;;;;;;;21.93;50.56;94171.78;5985196;23;20451;-92
2023/10/02 03:05:10;;;;;;;3.58;2.60;;;;;;;21.89;50.66;94172.81;5981500;23;20085;-92
2023/10/02 03:07:36;;;;;;;4.88;2.35;;;;;;;21.91;50.65;94175.03;6005568;23;20020;-92
2023/10/02 03:10:02;;;;;;;4.53;2.90;;;;;;;21.89;50.61;94169.31;5982385;23;20495;-93
2023/10/02 03:12:28;;;;;;;3.30;2.40;;;;;;;21.90;50.52;94163.28;6010996;23;20014;-94
2023/10/02 03:14:55;;;;;;;4.35;2.70;;;;;;;21.88;50.35;94168.56;6067546;23;20033;-91
2023/10/02 03:17:28;;;;;;;4.43;2.92;;;;;;;21.91;50.49;94169.53;6066319;23;20026;-92
2023/10/02 03:19:55;;;;;;;3.95;2.80;;;;;;;21.89;50.61;94161.06;6045249;23;20026;-91
2023/10/02 03:22:20;;;;;;;3.78;2.47;;;;;;;21.92;50.44;94170.28;6066652;23;20589;-92
2023/10/02 03:24:46;;;;;;;5.25;2.58;;;;;;;21.91;50.68;94175.03;6067429;23;20030;-91
2023/10/02 03:27:14;;;;;;;5.07;2.88;;;;;;;21.96;50.54;94171.50;6018250;23;20323;-92
2023/10/02 03:29:39;;;;;;;4.15;2.65;;;;;;;21.94;50.51;94160.25;6017281;23;20014;-90
2023/10/02 03:32:06;;;;;;;3.47;2.28;;;;;;;21.97;50.77;94172.25;6048585;23;20088;-92
2023/10/02 03:34:34;;;;;;;4.20;2.75;;;;;;;21.94;50.97;94159.50;6047950;23;20024;-92
2023/10/02 03:40:13;;;;;;;4.28;2.53;;;;;;;22.03;50.57;94173.72;6066858;23;20013;-95
2023/10/02 03:42:39;;;;;;;3.97;2.80;;;;;;;22.00;50.62;94166.47;6038375;23;20019;-92
2023/10/02 03:45:12;;;;;;;20.90;10.45;;;;;;;22.01;50.64;94165.22;6036127;23;20019;-92
2023/10/02 03:47:38;;;;;;;7.30;3.22;;;;;;;22.06;50.43;94166.44;6057118;23;20075;-92
2023/10/02 03:50:14;;;;;;;4.72;2.92;;;;;;;22.01;50.55;94167.97;6043828;23;20027;-93
2023/10/02 03:52:45;;;;;;;5.55;3.08;;;;;;;21.99;50.56;94155.97;6066245;23;20481;-91
2023/10/02 03:55:39;;;;;;;5.97;3.20;;;;;;;21.98;50.38;94166.22;6023835;23;20015;-93
2023/10/02 03:58:10;;;;;;;151.77;16.10;;;;;;;21.99;50.55;94155.97;5919559;24;20546;-94
2023/10/02 04:00:44;;;;;;;193.77;20.08;;;;;;;21.93;49.26;94158.00;5905786;24;20039;-91
2023/10/02 04:03:11;;;;;;;570.97;53.50;;;;;;;21.80;48.50;94150.41;5927356;24;20028;-92
2023/10/02 04:05:43;;;;;;;173.90;21.33;;;;;;;21.73;47.63;94150.97;5957426;24;20032;-93
2023/10/02 04:08:37;;;;;;;685.97;77.07;;;;;;;21.59;47.20;94154.84;5911852;24;20016;-92
2023/10/02 04:11:12;;;;;;;498.23;56.15;;;;;;;21.48;47.16;94159.19;5905704;24;20394;-93
2023/10/02 04:13:39;;;;;;;202.93;28.90;;;;;;;21.52;46.78;94158.91;5873667;24;20017;-94
2023/10/02 04:18:49;;;;;;;90.15;16.55;;;;;;;21.38;47.03;94162.78;6098977;23;20025;-88
2023/10/02 04:21:20;;;;;;;46.95;13.85;;;;;;;21.37;46.88;94150.28;6072625;23;20025;-90
2023/10/02 04:23:45;;;;;;;52.65;10.75;;;;;;;21.30;46.76;94157.06;6073673;23;20022;-88
2023/10/02 04:26:20;;;;;;;41.85;11.05;;;;;;;21.23;47.18;94163.13;6069004;23;20585;-87
2023/10/02 04:31:41;;;;;;;40.67;10.50;;;;;;;21.19;46.96;94157.16;6100674;23;20024;-91
2023/10/02 04:34:23;;;;;;;146.45;23.73;;;;;;;21.23;47.00;94165.13;6072919;23;20025;-89
2023/10/02 04:36:49;;;;;;;59.05;12.43;;;;;;;21.22;47.23;94156.13;6080024;23;20010;-90
2023/10/02 04:42:14;;;;;;;24.85;9.13;;;;;;;21.14;47.17;94152.44;6089560;23;20021;-92
2023/10/02 04:44:46;;;;;;;23.38;9.68;;;;;;;20.98;47.61;94154.03;6080018;23;20458;-92
2023/10/02 04:47:18;;;;;;;32.70;9.80;;;;;;;20.85;47.79;94160.09;6076212;23;20460;-91
2023/10/02 04:55:41;;;;;;;47.10;26.50;;;;;;;20.58;48.54;94146.50;6093276;23;20101;-94
2023/10/02 05:00:39;;;;;;;67.95;20.85;;;;;;;20.63;48.77;94157.47;6045058;23;20049;-92
2023/10/02 05:03:18;;;;;;;51.33;18.58;;;;;;;20.48;49.05;94160.56;6020507;23;20026;-93
2023/10/02 05:05:49;;;;;;;154.45;39.25;;;;;;;20.50;49.07;94163.53;6026482;23;20510;-92
2023/10/02 05:08:20;;;;;;;112.82;31.33;;;;;;;20.50;49.11;94162.78;6069640;23;20105;-93
2023/10/02 05:10:49;;;;;;;112.13;30.17;;;;;;;20.47;49.18;94156.31;6024582;23;20143;-91
2023/10/02 05:13:44;;;;;;;111.13;27.75;;;;;;;20.52;48.92;94158.28;6044905;23;20046;-90
2023/10/02 05:16:07;;;;;;;122.20;39.72;;;;;;;20.48;49.21;94162.56;6052976;23;20097;-92
2023/10/02 05:18:34;;;;;;;110.10;31.23;;;;;;;20.61;49.01;94157.22;6020150;23;20113;-92
2023/10/02 05:21:04;;;;;;;99.60;29.20;;;;;;;20.67;48.73;94163.44;6064253;23;20018;-90
2023/10/02 05:23:30;;;;;;;84.05;30.05;;;;;;;20.67;48.83;94171.69;6078554;23;20014;-92
2023/10/02 05:26:00;;;;;;;80.20;31.88;;;;;;;20.59;48.70;94169.97;6068060;23;20022;-92
2023/10/02 05:28:38;;;;;;;88.88;35.60;;;;;;;20.63;48.81;94176.69;6081585;23;20018;-91
2023/10/02 05:31:08;;;;;;;87.70;36.65;;;;;;;20.61;48.79;94164.72;6064822;23;20352;-90
2023/10/02 05:33:37;;;;;;;106.82;37.92;;;;;;;20.68;48.64;94167.69;6105557;23;20017;-91
2023/10/02 05:36:09;;;;;;;96.22;34.72;;;;;;;20.71;48.71;94169.44;6083201;23;20014;-89
2023/10/02 05:38:34;;;;;;;131.48;42.08;;;;;;;20.67;48.80;94168.19;6068131;23;20018;-90
2023/10/02 05:41:03;;;;;;;141.80;37.63;;;;;;;20.75;48.80;94175.41;6075581;23;20033;-90
2023/10/02 05:43:31;;;;;;;47.35;20.38;;;;;;;20.68;48.42;94177.94;6075206;23;20018;-89
2023/10/02 05:45:57;;;;;;;90.13;28.73;;;;;;;20.49;49.00;94173.03;6074244;23;20323;-88
2023/10/02 05:48:28;;;;;;;;;;;;;;;;;;;;;
2023/10/02 05:51:09;;;;;;;155.88;53.90;;;;;;;20.54;49.04;94177.00;6047698;23;20014;-91
2023/10/02 05:53:34;;;;;;;156.07;51.47;;;;;;;20.66;48.79;94183.19;6045255;23;20015;-90
2023/10/02 05:56:12;;;;;;;190.48;54.38;;;;;;;20.70;48.78;94186.41;6044446;23;20119;-90
2023/10/02 05:58:41;;;;;;;214.07;50.08;;;;;;;20.74;48.67;94187.66;6019535;23;20583;-90
2023/10/02 06:01:18;;;;;;;162.40;61.28;;;;;;;20.82;48.78;94190.59;6045797;23;20029;-90
2023/10/02 06:04:00;;;;;;;146.93;44.92;;;;;;;20.81;48.65;94189.09;6025634;23;20081;-94
2023/10/02 06:06:27;;;;;;;130.23;45.90;;;;;;;20.80;48.72;94191.09;6054277;23;20037;-92
2023/10/02 06:09:03;;;;;;;106.75;51.05;;;;;;;20.86;48.49;94188.31;6060168;23;20045;-90
2023/10/02 06:11:59;;;;;;;85.45;38.75;;;;;;;20.87;48.76;94192.56;6012368;23;20134;-94
2023/10/02 06:14:27;;;;;;;78.30;32.53;;;;;;;20.95;48.86;94195.53;6079681;23;20018;-88
2023/10/02 06:16:58;;;;;;;87.90;32.07;;;;;;;20.95;48.83;94195.53;6105923;23;20018;-91
2023/10/02 06:19:23;;;;;;;66.90;27.98;;;;;;;20.97;48.74;94198.53;6078235;23;20019;-91
2023/10/02 06:22:04;;;;;;;52.65;25.50;;;;;;;21.01;48.76;94196.97;6050340;23;20011;-88
2023/10/02 06:24:30;;;;;;;58.55;26.83;;;;;;;20.93;49.01;94204.28;6078854;23;20058;-89
2023/10/02 06:27:13;;;;;;;61.58;24.45;;;;;;;21.01;48.86;94204.47;6052432;23;20021;-89
2023/10/02 06:29:47;;;;;;;56.25;23.27;;;;;;;21.00;49.04;94197.50;6018335;23;20042;-89
2023/10/02 06:32:19;;;;;;;63.53;26.75;;;;;;;21.02;49.08;94198.47;5974238;23;20042;-88
2023/10/02 06:34:44;;;;;;;97.13;32.08;;;;;;;21.02;48.93;94198.47;5974618;23;20050;-90
2023/10/02 06:37:13;;;;;;;80.10;30.20;;;;;;;21.05;49.06;94196.72;5966784;23;20376;-95
2023/10/02 06:40:23;;;;;;;86.78;31.30;;;;;;;21.07;49.02;94192.19;5993310;23;20035;-94
2023/10/02 07:07:36;;;;;;;317.45;148.40;;;;;;;21.22;49.92;94194.63;6136268;23;20053;-95
2023/10/02 07:10:14;;;;;;;255.35;130.57;;;;;;;21.26;49.79;94186.09;6058285;23;20017;-94
2023/10/02 07:15:13;;;;;;;221.48;111.25;;;;;;;21.28;50.25;94197.34;6111617;23;20018;-91
2023/10/02 07:23:23;;;;;;;210.48;105.35;;;;;;;21.34;50.38;94203.56;6157790;23;20025;-94
2023/10/02 07:26:51;;;;;;;205.50;95.65;;;;;;;21.38;50.04;94199.28;5954994;23;20098;-94
2023/10/02 07:29:37;;;;;;;160.40;82.05;;;;;;;21.46;50.18;94202.22;6094692;23;20024;-92
2023/10/02 07:35:26;;;;;;;172.60;76.38;;;;;;;21.46;50.42;94202.22;6163559;23;20021;-94
2023/10/02 07:38:41;;;;;;;;;;;;;;;;;;;;;
2023/10/02 07:44:50;;;;;;;149.23;75.50;;;;;;;21.45;50.63;94200.72;6132364;23;20032;-93
2023/10/02 07:47:21;;;;;;;149.18;73.45;;;;;;;21.47;50.65;94198.19;6067641;23;20036;-94
2023/10/02 07:49:59;;;;;;;152.73;76.03;;;;;;;21.51;50.38;94190.41;6053021;23;20029;-92
2023/10/02 07:52:49;;;;;;;176.45;76.32;;;;;;;21.55;50.37;94199.16;6074991;23;20032;-93
2023/10/02 08:00:37;;;;;;;172.07;74.18;;;;;;;21.66;51.12;94201.03;6106796;23;20018;-92
2023/10/02 08:03:31;;;;;;;312.77;91.18;;;;;;;21.69;51.28;94192.50;6047426;23;20011;-93
2023/10/02 08:11:14;;;;;;;172.43;64.22;;;;;;;21.64;51.76;94206.34;6121500;23;20030;31
2023/10/02 08:13:52;;;;;;;136.77;54.38;;;;;;;21.63;52.02;94202.84;6054722;23;20026;-91
2023/10/02 08:16:22;;;;;;;91.20;39.22;;;;;;;21.77;51.86;94195.47;6051561;23;20068;-93
2023/10/02 08:19:36;;;;;;;;;;;;;;;;;;;;;
2023/10/02 08:24:46;;;;;;;34.60;15.13;;;;;;;21.74;51.97;94210.25;6169305;23;20021;-92
2023/10/02 08:30:01;;;;;;;41.72;20.60;;;;;;;21.68;51.83;94195.78;5970608;23;20023;-92
2023/10/02 08:32:31;;;;;;;39.92;18.65;;;;;;;21.71;51.53;94198.25;5988691;23;20471;-90
2023/10/02 08:35:13;;;;;;;46.08;14.20;;;;;;;21.60;52.11;94189.34;6025916;23;20019;-93
2023/10/02 08:37:53;;;;;;;44.95;15.25;;;;;;;21.59;51.98;94190.63;5989161;23;20011;-94
2023/10/02 08:40:20;;;;;;;52.05;17.48;;;;;;;21.63;51.91;94196.59;5993758;23;20024;-95
2023/10/02 08:46:04;;;;;;;54.97;28.45;;;;;;;21.66;52.26;94201.78;5927992;24;20440;-96
2023/10/02 08:48:31;;;;;;;86.47;26.88;;;;;;;21.71;52.18;94195.50;5891527;24;20426;-91
2023/10/02 08:51:09;;;;;;;26.98;11.68;;;;;;;21.74;52.38;94199.22;5847453;24;20018;-92
2023/10/02 08:53:35;;;;;;;35.53;14.13;;;;;;;21.70;52.62;94199.50;5866357;24;20028;-93
2023/10/02 08:56:00;;;;;;;26.98;12.82;;;;;;;21.69;52.83;94198.03;5865460;24;20021;-91
2023/10/02 09:01:34;;;;;;;22.67;11.30;;;;;;;21.69;52.21;94187.00;5832382;24;20026;-92
2023/10/02 09:04:22;;;;;;;21.42;10.57;;;;;;;21.71;52.07;94190.00;5823240;24;20036;-93
2023/10/02 09:06:49;;;;;;;33.60;13.32;;;;;;;21.68;51.58;94193.03;5849700;24;20018;-92
2023/10/02 09:11:56;;;;;;;28.42;15.68;;;;;;;21.64;51.01;94187.06;5874845;24;20598;-93
2023/10/02 09:17:20;;;;;;;30.65;16.77;;;;;;;21.65;50.24;94177.56;6135006;23;20025;-91
2023/10/02 09:22:31;;;;;;;27.92;16.63;;;;;;;21.70;49.95;94176.75;6096766;23;20026;-94
2023/10/02 09:25:18;;;;;;;39.60;21.20;;;;;;;21.75;50.20;94173.94;5993421;23;20031;-92
2023/10/02 09:28:04;;;;;;;46.55;18.08;;;;;;;21.74;50.08;94174.47;6002348;23;20027;-92
2023/10/02 09:30:41;;;;;;;28.42;13.32;;;;;;;21.73;50.34;94173.72;5962682;23;20128;-90
2023/10/02 09:33:23;;;;;;;38.53;15.88;;;;;;;21.74;50.24;94164.19;6009864;23;20060;-91
2023/10/02 09:35:51;;;;;;;94.22;27.00;;;;;;;21.77;49.97;94167.94;5997970;23;20019;-90
2023/10/02 09:38:17;;;;;;;132.57;63.83;;;;;;;21.77;49.48;94168.69;5958699;23;20020;-90
2023/10/02 09:41:11;;;;;;;133.18;71.25;;;;;;;21.77;49.44;94179.69;5991299;23;20023;-92
2023/10/02 09:43:56;;;;;;;216.80;78.13;;;;;;;21.77;49.61;94174.19;5948999;23;20038;-92
2023/10/02 09:46:35;;;;;;;149.50;82.20;;;;;;;21.81;49.56;94169.16;5988210;23;20015;-91
2023/10/02 09:52:34;;;;;;;116.43;45.30;;;;;;;21.95;49.46;94155.50;5971658;23;20058;-93
2023/10/02 09:55:09;;;;;;;82.10;28.75;;;;;;;22.04;50.05;94157.94;6038075;23;20073;-90
2023/10/02 09:57:37;;;;;;;95.60;40.28;;;;;;;22.05;49.52;94167.69;6069859;23;20022;-91
2023/10/02 10:00:34;;;;;;;66.97;33.72;;;;;;;22.08;49.15;94161.16;6024080;23;20029;-90
2023/10/02 10:03:22;;;;;;;78.03;34.78;;;;;;;21.95;49.54;94161.75;6067591;23;20023;-89
2023/10/02 10:06:06;;;;;;;82.72;37.17;;;;;;;21.92;49.87;94168.28;6086341;23;20029;-91
2023/10/02 10:11:43;;;;;;;41.95;17.38;;;;;;;22.04;49.81;94169.69;6045710;23;20042;-90
2023/10/02 10:14:37;;;;;;;46.10;20.23;;;;;;;22.04;49.61;94164.19;6035192;23;20469;-91
2023/10/02 10:17:17;;;;;;;42.40;14.93;;;;;;;22.07;49.50;94173.44;6009938;23;20195;-90
2023/10/02 10:19:48;;;;;;;36.63;16.67;;;;;;;22.03;49.62;94168.22;6040258;23;20022;-90
2023/10/02 10:22:36;;;;;;;39.53;16.02;;;;;;;22.02;49.52;94165.97;6040103;23;20110;-91
2023/10/02 10:27:39;;;;;;;20.38;10.85;;;;;;;22.04;49.51;94164.19;6040164;23;20030;-92
2023/10/02 10:30:31;;;;;;;20.50;9.52;;;;;;;22.00;49.68;94160.22;6038621;23;20068;-90
2023/10/02 10:33:25;;;;;;;18.90;9.80;;;;;;;21.99;49.65;94156.72;6039540;23;20347;-90
2023/10/02 10:35:52;;;;;;;25.63;9.25;;;;;;;22.03;49.70;94159.19;5984037;23;20518;-90
2023/10/02 10:38:26;;;;;;;14.23;7.60;;;;;;;22.03;49.57;94153.69;5960908;23;20016;-90
2023/10/02 10:41:01;;;;;;;14.75;7.95;;;;;;;22.00;49.74;94160.22;5984644;23;20581;-89
2023/10/02 10:46:18;;;;;;;15.88;7.35;;;;;;;22.05;49.64;94156.69;6007048;23;20084;-91
2023/10/02 10:48:59;;;;;;;12.88;6.82;;;;;;;22.13;50.08;94161.06;5974029;23;20042;-88
2023/10/02 10:51:28;;;;;;;14.10;6.28;;;;;;;22.15;50.19;94161.31;5986363;23;20136;-89
2023/10/02 10:54:30;;;;;;;13.52;6.78;;;;;;;22.11;50.81;94160.09;5966312;23;20048;-89
2023/10/02 10:57:19;;;;;;;15.38;7.57;;;;;;;22.10;50.97;94151.09;5907097;24;20021;-88
2023/10/02 10:59:45;;;;;;;22.17;8.80;;;;;;;22.14;51.37;94162.56;5886136;24;20024;-91
2023/10/02 11:02:13;;;;;;;32.60;14.15;;;;;;;22.09;51.44;94152.34;5854120;24;20890;-92
2023/10/02 11:04:55;;;;;;;33.10;14.95;;;;;;;22.09;51.48;94149.59;5877051;24;20021;-90
2023/10/02 11:07:25;;;;;;;35.53;15.60;;;;;;;22.07;51.76;94149.41;5953503;23;20125;-91
2023/10/02 11:10:19;;;;;;;34.08;16.65;;;;;;;22.15;51.29;94149.53;5962229;23;20035;-91
2023/10/02 11:12:56;;;;;;;30.23;13.88;;;;;;;22.13;51.42;94138.31;5970834;23;20075;-88
2023/10/02 11:18:20;;;;;;;32.83;13.70;;;;;;;22.11;50.93;94136.06;5996029;23;20298;-90
2023/10/02 11:20:54;;;;;;;43.63;16.70;;;;;;;22.11;50.89;94130.56;5968192;23;20075;-92
2023/10/02 11:23:45;;;;;;;36.53;15.43;;;;;;;22.06;51.17;94128.63;5968242;23;20023;-90
2023/10/02 11:26:13;;;;;;;34.97;14.05;;;;;;;22.11;50.92;94121.56;5970355;23;20075;-91
2023/10/02 11:28:44;;;;;;;29.65;13.27;;;;;;;22.15;51.26;94124.75;6058641;23;20038;-89
2023/10/02 11:31:35;;;;;;;27.00;11.30;;;;;;;22.17;51.01;94125.00;6073135;23;20044;-90
2023/10/02 11:34:11;;;;;;;28.70;11.50;;;;;;;22.17;51.30;94122.25;6052499;23;20030;-93
2023/10/02 11:36:38;;;;;;;69.90;23.92;;;;;;;22.15;51.21;94122.00;6037608;23;20082;-92
2023/10/02 11:39:16;;;;;;;70.75;29.90;;;;;;;22.14;51.41;94117.75;6024743;23;20023;-92
2023/10/02 11:41:51;;;;;;;86.15;33.10;;;;;;;22.16;51.57;94121.50;6035241;23;20015;-93
2023/10/02 11:44:30;;;;;;;54.13;23.98;;;;;;;22.18;51.39;94126.50;5994858;23;20078;-93
2023/10/02 11:55:45;;;;;;;115.47;62.08;;;;;;;22.15;52.00;94117.25;6114300;23;20022;-92
2023/10/02 11:58:19;;;;;;;89.30;46.40;;;;;;;22.18;51.82;94116.22;5995762;23;20029;-94
2023/10/02 12:00:55;;;;;;;;;;;;;;;;;;;;;
2023/10/02 12:03:36;;;;;;;73.00;36.95;;;;;;;22.23;51.99;94109.16;5995704;23;20041;-93
2023/10/02 12:06:30;;;;;;;;;;;;;;;22.18;52.00;94102.44;6066294;23;20018;-92
2023/10/02 12:08:57;;;;;;;60.72;26.80;;;;;;;22.17;52.18;94097.47;6108293;23;19913;-92
2023/10/02 12:11:28;;;;;;;54.30;21.77;;;;;;;22.15;51.97;94100.72;6082187;23;20451;-90
2023/10/02 12:14:00;;;;;;;58.78;23.08;;;;;;;22.20;51.78;94096.41;6140795;23;20021;-92
2023/10/02 12:19:50;;;;;;;69.82;19.85;;;;;;;22.26;51.56;94093.59;6086643;23;20064;-92
2023/10/02 12:25:09;;;;;;;71.30;19.48;;;;;;;22.25;51.16;94092.13;6042756;23;20047;-94
2023/10/02 12:28:05;;;;;;;;;;;;;;;;;;;;;
2023/10/02 12:30:35;;;;;;;65.45;21.25;;;;;;;22.23;50.75;94087.88;6083510;23;20096;-93
2023/10/02 12:33:19;;;;;;;55.25;23.63;;;;;;;22.27;50.65;94089.59;6057363;23;20049;-94
2023/10/02 12:35:54;;;;;;;55.35;15.93;;;;;;;22.29;51.23;94082.31;6079692;23;20022;-94
2023/10/02 12:42:04;;;;;;;28.52;9.32;;;;;;;22.38;50.44;94075.66;6005929;23;20076;-94
2023/10/02 12:50:18;;;;;;;76.65;29.98;;;;;;;22.44;50.42;94070.81;6103434;23;20490;-92
2023/10/02 12:52:54;;;;;;;105.03;37.50;;;;;;;22.44;50.51;94057.06;6072673;23;20026;-91
2023/10/02 12:55:44;;;;;;;18.75;8.88;;;;;;;22.39;50.66;94063.38;6057286;23;20441;-92
2023/10/02 12:58:09;;;;;;;37.47;13.37;;;;;;;22.38;50.49;94062.63;5997240;23;20022;-93
2023/10/02 13:00:48;;;;;;;29.75;12.05;;;;;;;22.37;50.97;94065.91;6047177;23;20014;-94
2023/10/02 13:03:16;;;;;;;42.85;15.85;;;;;;;22.37;50.86;94058.38;6095736;23;20017;-93
2023/10/02 13:05:49;;;;;;;53.70;17.48;;;;;;;22.48;50.38;94052.75;6069374;23;20048;-94
2023/10/02 13:08:14;;;;;;;48.83;17.73;;;;;;;22.40;50.60;94048.34;6082809;23;20029;-92
2023/10/02 13:11:10;;;;;;;43.20;16.63;;;;;;;22.43;50.58;94055.56;6035962;23;20033;-93
2023/10/02 13:16:01;;;;;;;41.60;11.95;;;;;;;22.44;50.13;94043.28;6130623;23;20474;-93
2023/10/02 13:18:29;;;;;;;38.85;14.88;;;;;;;22.45;50.08;94051.03;6050251;23;20251;-92
2023/10/02 13:21:23;;;;;;;41.83;16.15;;;;;;;22.50;50.16;94046.72;6064252;23;20018;-91
2023/10/02 13:24:17;;;;;;;37.60;16.38;;;;;;;22.46;50.32;94038.00;6111593;23;20054;-94
2023/10/02 13:26:55;;;;;;;50.03;16.30;;;;;;;22.48;50.33;94049.25;6075942;23;20072;-94
2023/10/02 13:29:24;;;;;;;56.33;18.23;;;;;;;22.54;50.41;94034.09;6071883;23;20026;-92
2023/10/02 13:31:51;;;;;;;32.17;13.35;;;;;;;22.57;50.32;94035.06;6029728;23;20075;-94
2023/10/02 13:34:18;;;;;;;43.88;14.60;;;;;;;22.59;49.99;94027.03;6069861;23;20045;-92
2023/10/02 13:37:13;;;;;;;35.08;14.43;;;;;;;22.54;50.05;94027.84;6061276;23;20019;-93
2023/10/02 13:39:51;;;;;;;;;;;;;;;;;;;;;
2023/10/02 13:42:17;;;;;;;34.10;13.15;;;;;;;22.71;49.77;94033.88;6033494;23;20130;-91
2023/10/02 13:44:51;;;;;;;31.52;12.38;;;;;;;22.68;49.31;94026.66;6083218;23;20026;-93
2023/10/02 13:47:17;;;;;;;28.38;14.48;;;;;;;22.69;49.46;94022.63;6057174;23;20029;-93
2023/10/02 13:49:43;;;;;;;37.45;14.65;;;;;;;22.70;49.44;94017.84;6042330;23;20022;-95
2023/10/02 13:55:22;;;;;;;63.83;20.48;;;;;;;22.72;49.39;94015.31;6081824;23;20042;-93
2023/10/02 13:57:49;;;;;;;242.32;202.93;;;;;;;22.82;49.69;94016.44;6036570;23;20033;-90
2023/10/02 14:00:20;;;;;;;37.30;17.40;;;;;;;22.83;48.85;94021.41;6003223;23;20487;-91
2023/10/02 14:03:15;;;;;;;;;;;;;;;22.77;49.25;94009.72;6012757;23;20022;-94
2023/10/02 14:05:43;;;;;;;144.93;50.67;;;;;;;22.83;48.96;94007.63;5899675;24;19968;-89
2023/10/02 14:08:53;;;;;;;199.27;70.75;;;;;;;22.79;48.70;93998.91;5896281;24;20058;-93
2023/10/02 14:11:54;;;;;;;26.13;10.70;;;;;;;22.81;48.36;94003.91;5893770;24;20029;-92
2023/10/02 14:15:08;;;;;;;;;;;;;;;;;;;;;
2023/10/02 14:20:16;;;;;;;24.30;10.50;;;;;;;22.78;48.75;93991.19;6106059;23;20021;-93
2023/10/02 14:23:20;;;;;;;20.77;9.85;;;;;;;22.73;49.05;94001.00;6041412;23;20094;-92
2023/10/02 14:25:53;;;;;;;11.82;7.28;;;;;;;22.77;48.95;93997.94;5898812;24;20033;-94
2023/10/02 14:28:23;;;;;;;16.77;7.82;;;;;;;22.83;48.53;93996.59;6050010;23;20022;-94
2023/10/02 14:30:52;;;;;;;12.25;6.30;;;;;;;22.82;48.45;93992.38;6077655;23;20025;-92
2023/10/02 14:33:20;;;;;;;17.95;7.75;;;;;;;22.84;48.71;93989.81;6116025;23;20029;-91